createdAt,value
2022-08-20T00:01:05.143Z,100.00
2022-08-20T00:03:35.873Z,100.00
2022-08-20T00:06:05.791Z,100.00
2022-08-20T00:08:33.122Z,100.00
2022-08-20T00:11:01.348Z,100.00
2022-08-20T00:13:43.325Z,100.00
2022-08-20T00:16:11.766Z,100.00
2022-08-20T00:18:39.487Z,100.00
2022-08-20T00:21:10.941Z,100.00
2022-08-20T00:23:43.152Z,100.00
2022-08-20T00:26:11.317Z,100.00
2022-08-20T00:28:38.908Z,100.00
2022-08-20T00:31:09.463Z,100.00
2022-08-20T00:33:37.996Z,100.00
2022-08-20T00:36:11.055Z,100.00
2022-08-20T00:38:40.264Z,100.00
2022-08-20T00:41:10.611Z,100.00
2022-08-20T00:43:40.867Z,100.00
2022-08-20T00:46:14.550Z,100.00
2022-08-20T00:48:43.813Z,100.00
2022-08-20T00:51:32.353Z,100.00
2022-08-20T00:54:18.168Z,100.00
2022-08-20T00:56:49.502Z,100.00
2022-08-20T00:59:23.151Z,100.00
2022-08-20T01:01:55.559Z,100.00
2022-08-20T01:04:26.119Z,100.00
2022-08-20T01:06:53.615Z,100.00
2022-08-20T01:09:49.481Z,100.00
2022-08-20T01:12:09.981Z,100.00
2022-08-20T01:14:46.721Z,100.00
2022-08-20T01:17:19.130Z,100.00
2022-08-20T01:19:53.051Z,100.00
2022-08-20T01:22:59.400Z,100.00
2022-08-20T01:25:53.543Z,100.00
2022-08-20T01:28:25.544Z,100.00
2022-08-20T01:30:53.469Z,100.00
2022-08-20T01:33:22.525Z,100.00
2022-08-20T01:35:51.697Z,100.00
2022-08-20T01:38:18.828Z,100.00
2022-08-20T01:41:04.762Z,100.00
2022-08-20T01:43:32.217Z,100.00
2022-08-20T01:46:05.034Z,100.00
2022-08-20T01:48:32.912Z,100.00
2022-08-20T01:51:23.493Z,100.00
2022-08-20T01:53:54.752Z,100.00
2022-08-20T01:56:27.024Z,100.00
2022-08-20T01:58:58.708Z,100.00
2022-08-20T02:01:34.644Z,100.00
2022-08-20T02:04:15.224Z,100.00
2022-08-20T02:06:56.875Z,100.00
2022-08-20T02:09:30.702Z,100.00
2022-08-20T02:11:58.159Z,100.00
2022-08-20T02:14:27.064Z,100.00
2022-08-20T02:16:55.367Z,100.00
2022-08-20T02:19:28.311Z,100.00
2022-08-20T02:22:00.062Z,100.00
2022-08-20T02:24:27.000Z,100.00
2022-08-20T02:26:55.039Z,100.00
2022-08-20T02:29:22.803Z,100.00
2022-08-20T02:32:31.163Z,100.00
2022-08-20T02:34:36.811Z,100.00
2022-08-20T02:37:05.965Z,100.00
2022-08-20T02:39:33.037Z,100.00
2022-08-20T02:42:03.476Z,100.00
2022-08-20T02:44:31.508Z,100.00
2022-08-20T02:46:58.665Z,100.00
2022-08-20T02:49:25.739Z,100.00
2022-08-20T02:51:52.791Z,100.00
2022-08-20T02:54:19.617Z,100.00
2022-08-20T02:56:47.544Z,100.00
2022-08-20T02:59:19.787Z,100.00
2022-08-20T03:01:55.869Z,100.00
2022-08-20T03:04:30.143Z,100.00
2022-08-20T03:06:59.042Z,100.00
2022-08-20T03:09:25.931Z,100.00
2022-08-20T03:11:53.038Z,100.00
2022-08-20T03:14:20.099Z,100.00
2022-08-20T03:16:47.066Z,100.00
2022-08-20T03:19:14.133Z,100.00
2022-08-20T03:21:41.382Z,100.00
2022-08-20T03:24:08.389Z,100.00
2022-08-20T03:26:35.346Z,100.00
2022-08-20T03:29:02.891Z,100.00
2022-08-20T03:31:29.889Z,100.00
2022-08-20T03:33:56.864Z,100.00
2022-08-20T03:36:28.788Z,100.00
2022-08-20T03:38:58.483Z,100.00
2022-08-20T03:41:25.804Z,100.00
2022-08-20T03:43:53.249Z,100.00
2022-08-20T03:46:23.288Z,100.00
2022-08-20T03:48:59.889Z,100.00
2022-08-20T03:51:31.842Z,100.00
2022-08-20T03:54:18.664Z,100.00
2022-08-20T03:56:45.604Z,100.00
2022-08-20T03:59:12.433Z,100.00
2022-08-20T04:01:45.975Z,100.00
2022-08-20T04:04:14.478Z,100.00
2022-08-20T04:06:42.791Z,100.00
2022-08-20T04:09:11.921Z,100.00
2022-08-20T04:11:40.707Z,100.00
2022-08-20T04:14:09.342Z,100.00
2022-08-20T04:16:40.384Z,100.00
2022-08-20T04:19:08.409Z,100.00
2022-08-20T04:21:36.111Z,100.00
2022-08-20T04:24:05.430Z,100.00
2022-08-20T04:26:32.891Z,100.00
2022-08-20T04:28:59.792Z,100.00
2022-08-20T04:31:33.311Z,100.00
2022-08-20T04:34:02.577Z,100.00
2022-08-20T04:36:29.659Z,100.00
2022-08-20T04:38:57.018Z,100.00
2022-08-20T04:41:24.583Z,100.00
2022-08-20T04:43:54.627Z,100.00
2022-08-20T04:46:25.669Z,100.00
2022-08-20T04:48:53.611Z,100.00
2022-08-20T04:51:23.438Z,100.00
2022-08-20T04:53:54.061Z,100.00
2022-08-20T04:56:24.083Z,100.00
2022-08-20T04:58:52.792Z,100.00
2022-08-20T05:01:20.294Z,100.00
2022-08-20T05:03:48.067Z,100.00
2022-08-20T05:06:16.410Z,100.00
2022-08-20T05:08:44.114Z,100.00
2022-08-20T05:11:33.110Z,100.00
2022-08-20T05:13:58.707Z,99.58
2022-08-20T05:16:25.833Z,97.13
2022-08-20T05:18:53.071Z,95.66
2022-08-20T05:21:21.217Z,93.71
2022-08-20T05:23:49.441Z,91.34
2022-08-20T05:26:18.785Z,87.89
2022-08-20T05:28:58.527Z,89.25
2022-08-20T05:31:32.353Z,83.90
2022-08-20T05:34:10.428Z,84.04
2022-08-20T05:36:45.552Z,82.49
2022-08-20T05:39:15.377Z,81.11
2022-08-20T05:41:42.823Z,81.34
2022-08-20T05:44:13.583Z,79.79
2022-08-20T05:46:43.566Z,75.86
2022-08-20T05:49:13.704Z,74.81
2022-08-20T05:51:40.708Z,72.58
2022-08-20T05:54:07.929Z,72.42
2022-08-20T05:56:35.995Z,68.38
2022-08-20T05:59:04.879Z,67.27
2022-08-20T06:01:32.177Z,65.67
2022-08-20T06:04:17.938Z,62.96
2022-08-20T06:06:47.168Z,59.74
2022-08-20T06:09:30.921Z,59.97
2022-08-20T06:12:04.582Z,58.61
2022-08-20T06:14:33.094Z,60.57
2022-08-20T06:17:13.551Z,61.17
2022-08-20T06:19:44.512Z,61.75
2022-08-20T06:22:19.562Z,60.46
2022-08-20T06:24:53.343Z,60.68
2022-08-20T06:27:20.730Z,60.20
2022-08-20T06:29:48.433Z,57.67
2022-08-20T06:32:15.565Z,57.85
2022-08-20T06:34:49.698Z,56.45
2022-08-20T06:37:31.175Z,57.86
2022-08-20T06:40:14.028Z,58.06
2022-08-20T06:42:48.110Z,56.60
2022-08-20T06:45:19.371Z,53.93
2022-08-20T06:47:47.736Z,52.94
2022-08-20T06:50:19.192Z,51.61
2022-08-20T06:52:52.672Z,49.70
2022-08-20T06:55:21.472Z,49.85
2022-08-20T06:57:56.612Z,49.94
2022-08-20T07:00:23.783Z,48.46
2022-08-20T07:02:50.664Z,47.01
2022-08-20T07:05:17.728Z,46.62
2022-08-20T07:07:47.235Z,45.27
2022-08-20T07:10:15.682Z,43.57
2022-08-20T07:12:42.777Z,43.04
2022-08-20T07:15:11.548Z,41.35
2022-08-20T07:17:38.416Z,40.91
2022-08-20T07:20:08.624Z,41.05
2022-08-20T07:22:37.005Z,39.68
2022-08-20T07:25:05.734Z,39.29
2022-08-20T07:27:33.000Z,39.04
2022-08-20T07:30:19.015Z,38.99
2022-08-20T07:32:47.678Z,39.55
2022-08-20T07:35:17.048Z,41.01
2022-08-20T07:37:46.936Z,40.80
2022-08-20T07:40:25.727Z,40.08
2022-08-20T07:43:02.782Z,39.58
2022-08-20T07:45:31.075Z,40.44
2022-08-20T07:48:08.039Z,41.15
2022-08-20T07:50:35.025Z,42.38
2022-08-20T07:53:02.112Z,43.22
2022-08-20T07:55:30.389Z,43.44
2022-08-20T07:58:00.382Z,42.66
2022-08-20T08:00:27.636Z,40.73
2022-08-20T08:02:54.521Z,40.37
2022-08-20T08:05:21.490Z,40.21
2022-08-20T08:07:48.832Z,37.84
2022-08-20T08:10:19.762Z,39.68
2022-08-20T08:12:50.500Z,37.72
2022-08-20T08:15:24.122Z,36.47
2022-08-20T08:17:52.913Z,35.78
2022-08-20T08:20:22.680Z,38.42
2022-08-20T08:22:50.555Z,37.18
2022-08-20T08:25:17.797Z,37.22
2022-08-20T08:27:48.906Z,37.23
2022-08-20T08:30:16.828Z,35.91
2022-08-20T08:33:03.031Z,36.54
2022-08-20T08:35:32.732Z,34.64
2022-08-20T08:38:02.548Z,34.39
2022-08-20T08:40:31.958Z,35.72
2022-08-20T08:43:03.082Z,35.51
2022-08-20T08:45:45.649Z,34.57
2022-08-20T08:48:18.682Z,35.29
2022-08-20T08:50:53.976Z,35.95
2022-08-20T08:53:27.872Z,36.91
2022-08-20T08:55:54.885Z,36.31
2022-08-20T08:58:22.297Z,36.72
2022-08-20T09:00:57.665Z,36.93
2022-08-20T09:03:33.397Z,37.06
2022-08-20T09:06:02.953Z,37.66
2022-08-20T09:08:36.009Z,37.00
2022-08-20T09:11:06.599Z,37.46
2022-08-20T09:13:34.858Z,37.47
2022-08-20T09:16:02.216Z,37.55
2022-08-20T09:18:29.683Z,36.64
2022-08-20T09:20:56.787Z,38.50
2022-08-20T09:23:23.968Z,34.94
2022-08-20T09:25:50.962Z,35.14
2022-08-20T09:28:18.117Z,33.98
2022-08-20T09:30:44.955Z,32.69
2022-08-20T09:33:13.227Z,32.95
2022-08-20T09:35:41.013Z,32.60
2022-08-20T09:38:08.256Z,32.48
2022-08-20T09:40:35.237Z,32.33
2022-08-20T09:43:05.033Z,33.98
2022-08-20T09:45:32.145Z,36.10
2022-08-20T09:47:59.167Z,36.76
2022-08-20T09:50:29.941Z,35.41
2022-08-20T09:52:59.748Z,35.55
2022-08-20T09:55:43.832Z,35.22
2022-08-20T09:58:38.407Z,36.20
2022-08-20T10:01:14.510Z,34.58
2022-08-20T10:03:42.630Z,35.17
2022-08-20T10:06:11.346Z,34.61
2022-08-20T10:08:38.730Z,34.54
2022-08-20T10:11:05.960Z,32.70
2022-08-20T10:13:32.861Z,31.53
2022-08-20T10:15:59.759Z,30.97
2022-08-20T10:18:26.905Z,31.04
2022-08-20T10:20:53.760Z,31.32
2022-08-20T10:23:20.664Z,30.04
2022-08-20T10:25:47.859Z,30.81
2022-08-20T10:28:14.817Z,29.25
2022-08-20T10:30:41.686Z,29.45
2022-08-20T10:33:08.801Z,28.96
2022-08-20T10:35:35.651Z,30.08
2022-08-20T10:38:02.529Z,30.55
2022-08-20T10:40:29.680Z,31.77
2022-08-20T10:42:56.574Z,32.13
2022-08-20T10:45:25.856Z,32.69
2022-08-20T10:47:53.062Z,32.43
2022-08-20T10:50:20.222Z,31.43
2022-08-20T10:52:47.622Z,31.91
2022-08-20T10:55:14.913Z,32.83
2022-08-20T10:57:43.456Z,32.62
2022-08-20T11:00:14.959Z,33.10
2022-08-20T11:02:42.434Z,31.97
2022-08-20T11:05:09.583Z,31.19
2022-08-20T11:07:55.500Z,32.11
2022-08-20T11:10:29.869Z,31.38
2022-08-20T11:12:57.125Z,31.73
2022-08-20T11:15:24.618Z,33.39
2022-08-20T11:17:52.094Z,33.06
2022-08-20T11:20:21.624Z,34.05
2022-08-20T11:22:48.713Z,34.00
2022-08-20T11:25:15.583Z,34.09
2022-08-20T11:27:46.448Z,34.00
2022-08-20T11:30:20.382Z,32.40
2022-08-20T11:32:47.323Z,31.66
2022-08-20T11:35:41.043Z,31.61
2022-08-20T11:38:02.796Z,32.37
2022-08-20T11:40:31.556Z,33.52
2022-08-20T11:43:15.410Z,33.35
2022-08-20T11:45:48.348Z,32.88
2022-08-20T11:48:15.318Z,32.14
2022-08-20T11:50:42.183Z,32.61
2022-08-20T11:53:09.351Z,33.07
2022-08-20T11:55:37.447Z,32.84
2022-08-20T11:58:06.613Z,32.75
2022-08-20T12:00:34.297Z,31.75
2022-08-20T12:03:08.697Z,32.03
2022-08-20T12:05:36.109Z,32.45
2022-08-20T12:08:03.560Z,33.59
2022-08-20T12:10:31.235Z,32.32
2022-08-20T12:12:58.894Z,32.12
2022-08-20T12:15:26.950Z,33.02
2022-08-20T12:17:54.788Z,32.03
2022-08-20T12:20:23.331Z,33.21
2022-08-20T12:22:50.915Z,32.59
2022-08-20T12:25:17.956Z,31.83
2022-08-20T12:27:46.724Z,31.22
2022-08-20T12:30:17.721Z,32.84
2022-08-20T12:32:44.917Z,31.79
2022-08-20T12:35:14.544Z,30.43
2022-08-20T12:37:42.535Z,31.18
2022-08-20T12:40:31.895Z,33.03
2022-08-20T12:43:01.588Z,34.51
2022-08-20T12:45:28.572Z,35.42
2022-08-20T12:48:05.107Z,34.24
2022-08-20T12:50:33.788Z,34.42
2022-08-20T12:53:01.858Z,34.98
2022-08-20T12:55:30.155Z,36.36
2022-08-20T12:58:01.099Z,36.06
2022-08-20T13:00:34.858Z,35.83
2022-08-20T13:03:04.006Z,35.09
2022-08-20T13:05:32.461Z,36.63
2022-08-20T13:07:59.740Z,36.16
2022-08-20T13:10:31.155Z,35.54
2022-08-20T13:12:59.432Z,37.34
2022-08-20T13:15:26.390Z,39.43
2022-08-20T13:17:58.698Z,39.82
2022-08-20T13:20:33.916Z,40.84
2022-08-20T13:23:04.408Z,41.26
2022-08-20T13:25:32.393Z,40.84
2022-08-20T13:28:02.378Z,41.57
2022-08-20T13:30:29.550Z,39.84
2022-08-20T13:32:56.580Z,39.70
2022-08-20T13:35:23.811Z,38.75
2022-08-20T13:37:51.807Z,39.42
2022-08-20T13:40:18.925Z,41.06
2022-08-20T13:42:46.086Z,40.95
2022-08-20T13:45:13.973Z,40.72
2022-08-20T13:47:42.228Z,42.11
2022-08-20T13:50:17.478Z,40.02
2022-08-20T13:52:44.956Z,40.61
2022-08-20T13:55:19.912Z,41.05
2022-08-20T13:57:48.497Z,41.40
2022-08-20T14:00:20.028Z,41.03
2022-08-20T14:02:47.131Z,41.40
2022-08-20T14:05:18.996Z,41.97
2022-08-20T14:07:47.911Z,41.93
2022-08-20T14:10:22.394Z,42.89
2022-08-20T14:12:49.279Z,42.17
2022-08-20T14:15:17.315Z,41.80
2022-08-20T14:17:51.561Z,42.24
2022-08-20T14:20:21.817Z,42.26
2022-08-20T14:22:48.769Z,43.35
2022-08-20T14:25:17.572Z,41.53
2022-08-20T14:27:45.027Z,42.92
2022-08-20T14:30:14.929Z,43.17
2022-08-20T14:32:42.412Z,43.42
2022-08-20T14:35:10.947Z,44.01
2022-08-20T14:37:41.148Z,43.80
2022-08-20T14:40:12.972Z,44.95
2022-08-20T14:42:40.837Z,44.47
2022-08-20T14:45:12.134Z,43.89
2022-08-20T14:47:44.946Z,42.30
2022-08-20T14:50:16.224Z,42.29
2022-08-20T14:52:43.160Z,42.30
2022-08-20T14:55:15.157Z,42.39
2022-08-20T14:57:42.975Z,43.64
2022-08-20T15:00:13.306Z,43.32
2022-08-20T15:02:40.459Z,43.99
2022-08-20T15:05:08.592Z,44.43
2022-08-20T15:07:39.227Z,44.00
2022-08-20T15:10:13.158Z,43.82
2022-08-20T15:12:43.061Z,43.55
2022-08-20T15:15:15.320Z,44.39
2022-08-20T15:17:46.448Z,44.43
2022-08-20T15:20:19.894Z,44.51
2022-08-20T15:22:49.766Z,44.01
2022-08-20T15:25:19.870Z,44.84
2022-08-20T15:27:47.224Z,46.20
2022-08-20T15:30:18.137Z,46.12
2022-08-20T15:32:45.286Z,46.75
2022-08-20T15:35:13.316Z,46.95
2022-08-20T15:37:43.593Z,46.32
2022-08-20T15:40:14.153Z,46.56
2022-08-20T15:42:44.530Z,47.51
2022-08-20T15:45:21.966Z,47.45
2022-08-20T15:47:59.885Z,47.74
2022-08-20T15:50:42.058Z,47.75
2022-08-20T15:53:13.253Z,47.99
2022-08-20T15:55:46.570Z,48.44
2022-08-20T15:58:34.251Z,48.61
2022-08-20T16:01:24.835Z,49.07
2022-08-20T16:04:33.662Z,49.59
2022-08-20T16:07:10.041Z,49.93
2022-08-20T16:10:02.737Z,50.79
2022-08-20T16:12:36.487Z,50.89
2022-08-20T16:15:11.554Z,51.59
2022-08-20T16:17:49.643Z,51.75
2022-08-20T16:20:35.242Z,52.57
2022-08-20T16:23:03.984Z,52.60
2022-08-20T16:25:39.642Z,53.51
2022-08-20T16:28:23.017Z,54.22
2022-08-20T16:30:58.452Z,54.85
2022-08-20T16:33:45.166Z,55.55
2022-08-20T16:36:29.759Z,56.46
2022-08-20T16:39:05.200Z,56.91
2022-08-20T16:41:38.838Z,57.74
2022-08-20T16:44:34.758Z,58.29
2022-08-20T16:47:21.914Z,58.76
2022-08-20T16:50:02.249Z,59.62
2022-08-20T16:52:29.326Z,60.05
2022-08-20T16:54:56.635Z,60.43
2022-08-20T16:57:26.285Z,60.42
2022-08-20T17:00:12.255Z,60.87
2022-08-20T17:02:58.792Z,62.05
2022-08-20T17:05:42.112Z,62.76
2022-08-20T17:08:17.498Z,64.45
2022-08-20T17:11:00.438Z,64.50
2022-08-20T17:13:33.275Z,64.97
2022-08-20T17:16:14.741Z,65.29
2022-08-20T17:18:45.982Z,66.22
2022-08-20T17:21:15.214Z,67.68
2022-08-20T17:23:56.289Z,67.98
2022-08-20T17:26:29.492Z,68.17
2022-08-20T17:28:59.494Z,68.82
2022-08-20T17:31:42.341Z,69.67
2022-08-20T17:34:18.314Z,70.50
2022-08-20T17:36:50.281Z,70.85
2022-08-20T17:39:20.175Z,71.68
2022-08-20T17:41:49.427Z,72.21
2022-08-20T17:44:25.350Z,72.78
2022-08-20T17:46:56.579Z,73.38
2022-08-20T17:49:41.013Z,73.25
2022-08-20T17:52:17.361Z,75.84
2022-08-20T17:54:46.897Z,78.58
2022-08-20T17:57:17.107Z,80.60
2022-08-20T18:00:02.442Z,81.73
2022-08-20T18:02:30.881Z,83.37
2022-08-20T18:04:57.759Z,83.93
2022-08-20T18:07:31.328Z,84.65
2022-08-20T18:10:02.367Z,84.74
2022-08-20T18:12:34.981Z,86.32
2022-08-20T18:15:19.282Z,86.32
2022-08-20T18:18:01.059Z,87.48
2022-08-20T18:20:56.936Z,88.59
2022-08-20T18:23:30.104Z,90.75
2022-08-20T18:26:33.103Z,92.31
2022-08-20T18:29:07.986Z,93.44
2022-08-20T18:31:46.777Z,94.14
2022-08-20T18:34:21.243Z,95.77
2022-08-20T18:36:58.218Z,97.16
2022-08-20T18:39:36.847Z,98.24
2022-08-20T18:42:09.147Z,97.64
2022-08-20T18:44:44.009Z,97.49
2022-08-20T18:47:32.247Z,98.15
2022-08-20T18:50:16.198Z,99.88
2022-08-20T18:52:53.486Z,100.00
2022-08-20T18:55:45.374Z,100.00
2022-08-20T18:58:28.819Z,100.00
2022-08-20T19:00:55.627Z,100.00
2022-08-20T19:03:41.691Z,100.00
2022-08-20T19:06:13.762Z,100.00
2022-08-20T19:08:50.658Z,100.00
2022-08-20T19:11:55.262Z,100.00
2022-08-20T19:14:43.520Z,100.00
2022-08-20T19:17:17.587Z,100.00
2022-08-20T19:19:44.597Z,100.00
2022-08-20T19:22:16.125Z,100.00
2022-08-20T19:24:44.437Z,100.00
2022-08-20T19:27:13.006Z,100.00
2022-08-20T19:29:46.330Z,100.00
2022-08-20T19:32:23.008Z,100.00
2022-08-20T19:35:16.550Z,100.00
2022-08-20T19:37:51.326Z,100.00
2022-08-20T19:40:26.085Z,100.00
2022-08-20T19:42:58.166Z,100.00
2022-08-20T19:45:46.050Z,100.00
2022-08-20T19:48:44.046Z,100.00
2022-08-20T19:51:20.920Z,100.00
2022-08-20T19:53:49.409Z,100.00
2022-08-20T19:56:21.816Z,100.00
2022-08-20T19:59:07.375Z,100.00
2022-08-20T20:01:36.064Z,100.00
2022-08-20T20:04:07.203Z,100.00
2022-08-20T20:06:37.241Z,100.00
2022-08-20T20:09:07.750Z,100.00
2022-08-20T20:11:37.219Z,100.00
2022-08-20T20:14:07.783Z,100.00
2022-08-20T20:16:37.326Z,100.00
2022-08-20T20:19:25.782Z,100.00
2022-08-20T20:24:42.778Z,100.00
2022-08-20T20:27:22.113Z,100.00
2022-08-20T20:29:49.147Z,100.00
2022-08-20T20:32:23.559Z,100.00
2022-08-20T20:34:55.585Z,100.00
2022-08-20T20:37:49.696Z,100.00
2022-08-20T20:40:27.448Z,100.00
2022-08-20T20:43:34.252Z,100.00
2022-08-20T20:46:06.470Z,100.00
2022-08-20T20:48:46.283Z,100.00
2022-08-20T20:51:16.362Z,100.00
2022-08-20T20:53:54.323Z,100.00
2022-08-20T20:56:38.185Z,100.00
2022-08-20T20:59:08.053Z,100.00
2022-08-20T21:01:49.254Z,100.00
2022-08-20T21:04:23.197Z,100.00
2022-08-20T21:06:52.284Z,100.00
2022-08-20T21:09:20.738Z,100.00
2022-08-20T21:11:48.921Z,100.00
2022-08-20T21:14:16.701Z,100.00
2022-08-20T21:16:44.362Z,100.00
2022-08-20T21:19:12.176Z,100.00
2022-08-20T21:21:40.285Z,100.00
2022-08-20T21:24:08.734Z,100.00
2022-08-20T21:26:36.842Z,100.00
2022-08-20T21:29:06.707Z,100.00
2022-08-20T21:31:38.122Z,100.00
2022-08-20T21:34:11.890Z,100.00
2022-08-20T21:36:39.267Z,100.00
2022-08-20T21:39:06.400Z,100.00
2022-08-20T21:41:33.478Z,100.00
2022-08-20T21:44:03.492Z,100.00
2022-08-20T21:46:31.319Z,100.00
2022-08-20T21:48:58.224Z,100.00
2022-08-20T21:51:25.860Z,100.00
2022-08-20T21:53:52.788Z,100.00
2022-08-20T21:56:19.792Z,100.00
2022-08-20T21:58:50.786Z,100.00
2022-08-20T22:01:21.171Z,100.00
2022-08-20T22:03:51.668Z,100.00
2022-08-20T22:06:20.129Z,100.00
2022-08-20T22:08:47.437Z,100.00
2022-08-20T22:11:14.453Z,100.00
2022-08-20T22:13:45.253Z,100.00
2022-08-20T22:16:15.255Z,100.00
2022-08-20T22:18:42.365Z,100.00
2022-08-20T22:21:14.159Z,100.00
2022-08-20T22:23:40.966Z,100.00
2022-08-20T22:26:09.004Z,100.00
2022-08-20T22:28:36.307Z,100.00
2022-08-20T22:31:03.514Z,100.00
2022-08-20T22:33:31.827Z,100.00
2022-08-20T22:35:58.955Z,100.00
2022-08-20T22:38:26.343Z,100.00
2022-08-20T22:40:54.217Z,100.00
2022-08-20T22:43:21.719Z,100.00
2022-08-20T22:45:51.016Z,100.00
2022-08-20T22:48:20.367Z,100.00
2022-08-20T22:50:48.044Z,100.00
2022-08-20T22:53:17.336Z,100.00
2022-08-20T22:55:45.459Z,100.00
2022-08-20T22:58:12.863Z,100.00
2022-08-20T23:00:40.269Z,100.00
2022-08-20T23:03:07.958Z,100.00
2022-08-20T23:05:37.468Z,100.00
2022-08-20T23:08:06.638Z,100.00
2022-08-20T23:10:36.227Z,100.00
2022-08-20T23:13:03.719Z,100.00
2022-08-20T23:15:32.906Z,100.00
2022-08-20T23:18:03.581Z,100.00
2022-08-20T23:20:30.527Z,100.00
2022-08-20T23:22:57.738Z,100.00
2022-08-20T23:25:25.512Z,100.00
2022-08-20T23:27:56.994Z,100.00
2022-08-20T23:30:30.705Z,100.00
2022-08-20T23:32:57.818Z,100.00
2022-08-20T23:35:31.989Z,100.00
2022-08-20T23:38:00.619Z,100.00
2022-08-20T23:40:29.190Z,100.00
2022-08-20T23:42:57.427Z,100.00
2022-08-20T23:45:24.915Z,100.00
2022-08-20T23:47:52.043Z,100.00
2022-08-20T23:50:22.380Z,100.00
2022-08-20T23:52:52.304Z,100.00
2022-08-20T23:55:19.958Z,100.00
2022-08-20T23:57:46.838Z,100.00
